This is the latest recevied weather packets stored in our database for station/object SQ9PDE-13. If no packets are shown the sender has not sent any weather packets the latest 10 day(s).
| Time | Temp. | Humidity | Pressure | Rain* | Wind** | Luminosity | Snow |
|---|---|---|---|---|---|---|---|
| 1788018850 | 21.67° C | 59% | 1016.3 hPa | - | - | - | - |
| 1788018550 | 22.22° C | 59% | 1016.3 hPa | - | - | - | - |
| 1788018249 | 22.22° C | 58% | 1016.2 hPa | - | - | - | - |
| 1788017949 | 22.22° C | 58% | 1016.2 hPa | - | - | - | - |
| 1788017648 | 22.78° C | 60% | 1016.3 hPa | - | - | - | - |
| 1788017347 | 22.78° C | 60% | 1016.2 hPa | - | - | - | - |
| 1788017047 | 22.78° C | 60% | 1016.2 hPa | - | - | - | - |
| 1788016746 | 22.22° C | 61% | 1016.2 hPa | - | - | - | - |
| 1788016446 | 22.22° C | 63% | 1016.3 hPa | - | - | - | - |
| 1788015832 | 23.33° C | 58% | 1016 hPa | - | - | - | - |
| 1788015531 | 23.33° C | 58% | 1016.1 hPa | - | - | - | - |
| 1788015231 | 23.33° C | 60% | 1016 hPa | - | - | - | - |
| 1788014930 | 22.78° C | 61% | 1016.2 hPa | - | - | - | - |
| 1788014630 | 22.22° C | 63% | 1016.3 hPa | - | - | - | - |
| 1788014329 | 22.78° C | 62% | 1016.4 hPa | - | - | - | - |
| 1788014029 | 23.33° C | 60% | 1016.3 hPa | - | - | - | - |
| 1788013728 | 22.78° C | 61% | 1016.4 hPa | - | - | - | - |
| 1788013428 | 22.78° C | 63% | 1016.4 hPa | - | - | - | - |
| 1788013127 | 22.78° C | 62% | 1016.4 hPa | - | - | - | - |
| 1788012827 | 22.22° C | 63% | 1016.4 hPa | - | - | - | - |
| 1788012526 | 22.22° C | 62% | 1016.4 hPa | - | - | - | - |
| 1788012226 | 22.78° C | 62% | 1016.3 hPa | - | - | - | - |
| 1788011925 | 23.33° C | 61% | 1016.2 hPa | - | - | - | - |
| 1788011624 | 23.33° C | 60% | 1016.1 hPa | - | - | - | - |
| 1788011324 | 22.78° C | 62% | 1016.4 hPa | - | - | - | - |
* Rain since midnight (hover to see other rain measurements)
** Current wind speed in m/s (hover to see current wind gust speed)